Fortuna, North Dakota
Current Conditions -  °F | °C
As of 7:55 AM on Friday 31 Oct 2014 (Local Time) from KD50 Reporting Station
Clear Clear  
Wind Chill: 13°   Ceiling: Unl
Heat Index: 27°   Visibility: 10mi
Dew Point: 23°   Wind: 18mph
Humidity: 86%   Direction: 170°S
Pressure: 30.31"   Gusts: 26mph
Location:  48.91°N, 103.78°W
Report Text: KD50 311255Z AUTO 17016G23KT 10SM CLR M03/M05 A3031 RMK AO2
Loading
Personal Weather Stations






























Interactive Weather Map
Tropical Storm Tracking
New forecast layout! Learn more

10-Day Weather Forecast

Advertisements
Track Severe Weather on mobile